sensor_id;sensor_type;location;lat;lon;timestamp;pressure;altitude;pressure_sealevel;temperature;humidity
61898;BME280;47850;50.274;18.908;2023-04-24T00:02:18;97203.10;;;13.20;50.92
61898;BME280;47850;50.274;18.908;2023-04-24T00:04:46;97202.90;;;13.21;50.64
61898;BME280;47850;50.274;18.908;2023-04-24T00:07:14;97202.07;;;13.23;50.28
61898;BME280;47850;50.274;18.908;2023-04-24T00:09:44;97200.19;;;13.23;50.50
61898;BME280;47850;50.274;18.908;2023-04-24T00:12:12;97200.58;;;13.23;50.36
61898;BME280;47850;50.274;18.908;2023-04-24T00:14:39;97195.38;;;13.21;50.48
61898;BME280;47850;50.274;18.908;2023-04-24T00:17:07;97193.61;;;13.19;50.89
61898;BME280;47850;50.274;18.908;2023-04-24T00:19:35;97192.05;;;13.18;50.65
61898;BME280;47850;50.274;18.908;2023-04-24T00:22:03;97191.02;;;13.18;49.76
61898;BME280;47850;50.274;18.908;2023-04-24T00:24:31;97189.96;;;13.20;49.17
61898;BME280;47850;50.274;18.908;2023-04-24T00:26:58;97181.06;;;13.21;49.00
61898;BME280;47850;50.274;18.908;2023-04-24T00:29:28;97179.73;;;13.21;48.92
61898;BME280;47850;50.274;18.908;2023-04-24T00:31:56;97173.94;;;13.21;48.77
61898;BME280;47850;50.274;18.908;2023-04-24T00:34:23;97168.20;;;13.19;48.57
61898;BME280;47850;50.274;18.908;2023-04-24T00:36:51;97169.08;;;13.16;48.88
61898;BME280;47850;50.274;18.908;2023-04-24T00:39:19;97167.88;;;13.15;49.48
61898;BME280;47850;50.274;18.908;2023-04-24T00:41:47;97158.91;;;13.12;49.68
61898;BME280;47850;50.274;18.908;2023-04-24T00:44:15;97157.52;;;13.10;50.33
61898;BME280;47850;50.274;18.908;2023-04-24T00:46:43;97154.71;;;13.05;50.87
61898;BME280;47850;50.274;18.908;2023-04-24T00:49:11;97159.54;;;13.00;50.53
61898;BME280;47850;50.274;18.908;2023-04-24T00:51:39;97158.82;;;12.96;50.20
61898;BME280;47850;50.274;18.908;2023-04-24T00:54:08;97157.90;;;12.92;49.94
61898;BME280;47850;50.274;18.908;2023-04-24T00:56:35;97155.41;;;12.89;49.79
61898;BME280;47850;50.274;18.908;2023-04-24T00:59:03;97154.74;;;12.87;50.22
61898;BME280;47850;50.274;18.908;2023-04-24T01:01:31;97151.23;;;12.83;50.30
61898;BME280;47850;50.274;18.908;2023-04-24T01:04:00;97148.10;;;12.80;50.53
61898;BME280;47850;50.274;18.908;2023-04-24T01:06:28;97151.58;;;12.78;50.01
61898;BME280;47850;50.274;18.908;2023-04-24T01:08:58;97150.67;;;12.76;49.76
61898;BME280;47850;50.274;18.908;2023-04-24T01:11:27;97148.28;;;12.74;49.86
61898;BME280;47850;50.274;18.908;2023-04-24T01:13:56;97143.98;;;12.70;49.71
61898;BME280;47850;50.274;18.908;2023-04-24T01:16:24;97141.11;;;12.66;50.35
61898;BME280;47850;50.274;18.908;2023-04-24T01:18:51;97139.46;;;12.63;51.35
61898;BME280;47850;50.274;18.908;2023-04-24T01:21:19;97135.71;;;12.59;51.85
61898;BME280;47850;50.274;18.908;2023-04-24T01:23:48;97131.86;;;12.54;52.65
61898;BME280;47850;50.274;18.908;2023-04-24T01:26:16;97127.21;;;12.49;53.22
61898;BME280;47850;50.274;18.908;2023-04-24T01:28:44;97130.11;;;12.42;53.84
61898;BME280;47850;50.274;18.908;2023-04-24T01:31:12;97129.02;;;12.35;54.09
61898;BME280;47850;50.274;18.908;2023-04-24T01:33:41;97126.77;;;12.29;54.85
61898;BME280;47850;50.274;18.908;2023-04-24T01:36:12;97124.95;;;12.24;54.68
61898;BME280;47850;50.274;18.908;2023-04-24T01:38:40;97123.58;;;12.19;54.95
61898;BME280;47850;50.274;18.908;2023-04-24T01:41:08;97118.71;;;12.14;54.62
61898;BME280;47850;50.274;18.908;2023-04-24T01:43:36;97118.45;;;12.10;55.27
61898;BME280;47850;50.274;18.908;2023-04-24T01:46:03;97116.08;;;12.05;54.53
61898;BME280;47850;50.274;18.908;2023-04-24T01:48:32;97115.71;;;12.03;54.01
61898;BME280;47850;50.274;18.908;2023-04-24T01:51:00;97113.13;;;11.99;54.12
61898;BME280;47850;50.274;18.908;2023-04-24T01:53:28;97113.42;;;11.96;54.06
61898;BME280;47850;50.274;18.908;2023-04-24T01:55:56;97114.90;;;11.92;53.82
61898;BME280;47850;50.274;18.908;2023-04-24T01:58:24;97113.89;;;11.89;53.49
61898;BME280;47850;50.274;18.908;2023-04-24T02:00:55;97111.24;;;11.86;53.12
61898;BME280;47850;50.274;18.908;2023-04-24T02:03:23;97106.02;;;11.84;53.24
61898;BME280;47850;50.274;18.908;2023-04-24T02:05:51;97109.16;;;11.81;53.66
61898;BME280;47850;50.274;18.908;2023-04-24T02:08:18;97108.30;;;11.78;53.75
61898;BME280;47850;50.274;18.908;2023-04-24T02:10:46;97103.73;;;11.75;53.46
61898;BME280;47850;50.274;18.908;2023-04-24T02:13:14;97103.53;;;11.74;53.05
61898;BME280;47850;50.274;18.908;2023-04-24T02:15:41;97101.11;;;11.74;52.84
61898;BME280;47850;50.274;18.908;2023-04-24T02:18:09;97100.19;;;11.74;52.96
61898;BME280;47850;50.274;18.908;2023-04-24T02:20:38;97099.55;;;11.74;52.94
61898;BME280;47850;50.274;18.908;2023-04-24T02:23:06;97095.11;;;11.74;53.49
61898;BME280;47850;50.274;18.908;2023-04-24T02:25:34;97091.98;;;11.73;53.51
61898;BME280;47850;50.274;18.908;2023-04-24T02:28:01;97093.02;;;11.72;53.67
61898;BME280;47850;50.274;18.908;2023-04-24T02:30:30;97089.88;;;11.71;53.79
61898;BME280;47850;50.274;18.908;2023-04-24T02:32:57;97088.22;;;11.70;53.90
61898;BME280;47850;50.274;18.908;2023-04-24T02:35:25;97085.63;;;11.69;53.71
61898;BME280;47850;50.274;18.908;2023-04-24T02:37:53;97083.04;;;11.69;53.65
61898;BME280;47850;50.274;18.908;2023-04-24T02:40:20;97082.95;;;11.69;53.98
61898;BME280;47850;50.274;18.908;2023-04-24T02:42:50;97085.92;;;11.69;53.51
61898;BME280;47850;50.274;18.908;2023-04-24T02:45:18;97082.02;;;11.68;54.21
61898;BME280;47850;50.274;18.908;2023-04-24T02:47:46;97079.81;;;11.68;54.03
61898;BME280;47850;50.274;18.908;2023-04-24T02:50:13;97083.20;;;11.69;53.01
61898;BME280;47850;50.274;18.908;2023-04-24T02:52:41;97083.13;;;11.69;53.38
61898;BME280;47850;50.274;18.908;2023-04-24T02:55:09;97079.08;;;11.69;53.54
61898;BME280;47850;50.274;18.908;2023-04-24T02:57:36;97080.00;;;11.69;53.34
61898;BME280;47850;50.274;18.908;2023-04-24T03:00:04;97078.08;;;11.70;52.95
61898;BME280;47850;50.274;18.908;2023-04-24T03:02:34;97079.48;;;11.70;52.45
61898;BME280;47850;50.274;18.908;2023-04-24T03:05:02;97079.86;;;11.70;53.09
61898;BME280;47850;50.274;18.908;2023-04-24T03:07:30;97079.54;;;11.70;52.87
61898;BME280;47850;50.274;18.908;2023-04-24T03:09:59;97078.59;;;11.69;52.62
61898;BME280;47850;50.274;18.908;2023-04-24T03:12:26;97081.11;;;11.70;52.75
61898;BME280;47850;50.274;18.908;2023-04-24T03:14:54;97083.02;;;11.70;52.46
61898;BME280;47850;50.274;18.908;2023-04-24T03:17:22;97084.10;;;11.70;51.57
61898;BME280;47850;50.274;18.908;2023-04-24T03:19:49;97082.38;;;11.70;51.80
61898;BME280;47850;50.274;18.908;2023-04-24T03:22:17;97085.91;;;11.71;52.37
61898;BME280;47850;50.274;18.908;2023-04-24T03:24:45;97083.83;;;11.72;52.36
61898;BME280;47850;50.274;18.908;2023-04-24T03:27:12;97083.14;;;11.73;52.70
61898;BME280;47850;50.274;18.908;2023-04-24T03:29:40;97077.66;;;11.72;52.48
61898;BME280;47850;50.274;18.908;2023-04-24T03:32:08;97074.33;;;11.73;51.85
61898;BME280;47850;50.274;18.908;2023-04-24T03:34:35;97072.40;;;11.74;51.77
61898;BME280;47850;50.274;18.908;2023-04-24T03:37:03;97073.60;;;11.75;51.26
61898;BME280;47850;50.274;18.908;2023-04-24T03:39:31;97072.92;;;11.76;51.20
61898;BME280;47850;50.274;18.908;2023-04-24T03:41:59;97076.55;;;11.78;50.78
61898;BME280;47850;50.274;18.908;2023-04-24T03:44:27;97073.48;;;11.80;50.60
61898;BME280;47850;50.274;18.908;2023-04-24T03:46:55;97074.16;;;11.82;49.91
61898;BME280;47850;50.274;18.908;2023-04-24T03:49:23;97075.95;;;11.85;49.22
61898;BME280;47850;50.274;18.908;2023-04-24T03:51:50;97076.11;;;11.88;48.98
61898;BME280;47850;50.274;18.908;2023-04-24T03:54:19;97075.37;;;11.91;48.96
61898;BME280;47850;50.274;18.908;2023-04-24T03:56:47;97076.15;;;11.94;48.87
61898;BME280;47850;50.274;18.908;2023-04-24T03:59:14;97075.88;;;11.98;49.49
61898;BME280;47850;50.274;18.908;2023-04-24T04:01:42;97079.27;;;12.03;49.66
61898;BME280;47850;50.274;18.908;2023-04-24T04:04:10;97076.95;;;12.05;49.38
61898;BME280;47850;50.274;18.908;2023-04-24T04:06:37;97080.61;;;12.07;48.70
61898;BME280;47850;50.274;18.908;2023-04-24T04:09:05;97077.31;;;12.09;48.52
61898;BME280;47850;50.274;18.908;2023-04-24T04:11:33;97080.34;;;12.12;48.21
61898;BME280;47850;50.274;18.908;2023-04-24T04:14:01;97077.04;;;12.15;48.48
61898;BME280;47850;50.274;18.908;2023-04-24T04:16:28;97077.12;;;12.19;49.02
61898;BME280;47850;50.274;18.908;2023-04-24T04:18:56;97076.59;;;12.23;48.72
61898;BME280;47850;50.274;18.908;2023-04-24T04:21:24;97077.39;;;12.23;49.06
61898;BME280;47850;50.274;18.908;2023-04-24T04:23:51;97074.87;;;12.26;49.36
61898;BME280;47850;50.274;18.908;2023-04-24T04:26:19;97076.29;;;12.31;49.34
61898;BME280;47850;50.274;18.908;2023-04-24T04:28:48;97073.84;;;12.37;47.98
61898;BME280;47850;50.274;18.908;2023-04-24T04:31:16;97078.45;;;12.45;47.53
61898;BME280;47850;50.274;18.908;2023-04-24T04:33:44;97079.83;;;12.51;47.05
61898;BME280;47850;50.274;18.908;2023-04-24T04:36:11;97075.94;;;12.59;46.82
61898;BME280;47850;50.274;18.908;2023-04-24T04:38:39;97074.39;;;12.67;47.28
61898;BME280;47850;50.274;18.908;2023-04-24T04:41:08;97075.31;;;12.75;46.75
61898;BME280;47850;50.274;18.908;2023-04-24T04:43:35;97073.46;;;12.84;46.63
61898;BME280;47850;50.274;18.908;2023-04-24T04:46:03;97071.77;;;12.94;46.47
61898;BME280;47850;50.274;18.908;2023-04-24T04:48:31;97073.04;;;13.03;46.52
61898;BME280;47850;50.274;18.908;2023-04-24T04:50:59;97072.14;;;13.10;46.07
61898;BME280;47850;50.274;18.908;2023-04-24T04:53:26;97073.27;;;13.19;45.39
61898;BME280;47850;50.274;18.908;2023-04-24T04:55:54;97072.42;;;13.30;45.68
61898;BME280;47850;50.274;18.908;2023-04-24T04:58:22;97068.67;;;13.38;45.31
61898;BME280;47850;50.274;18.908;2023-04-24T05:00:49;97074.16;;;13.47;45.00
61898;BME280;47850;50.274;18.908;2023-04-24T05:03:17;97075.71;;;13.56;44.89
61898;BME280;47850;50.274;18.908;2023-04-24T05:05:45;97079.57;;;13.67;44.80
61898;BME280;47850;50.274;18.908;2023-04-24T05:08:13;97081.13;;;13.76;45.00
61898;BME280;47850;50.274;18.908;2023-04-24T05:10:40;97084.25;;;13.85;44.98
61898;BME280;47850;50.274;18.908;2023-04-24T05:13:08;97084.52;;;13.93;44.43
61898;BME280;47850;50.274;18.908;2023-04-24T05:15:36;97080.23;;;14.00;44.53
61898;BME280;47850;50.274;18.908;2023-04-24T05:18:03;97078.70;;;14.07;44.52
61898;BME280;47850;50.274;18.908;2023-04-24T05:20:31;97080.48;;;14.12;44.64
61898;BME280;47850;50.274;18.908;2023-04-24T05:22:59;97079.45;;;14.16;44.66
61898;BME280;47850;50.274;18.908;2023-04-24T05:25:26;97079.02;;;14.19;44.47
61898;BME280;47850;50.274;18.908;2023-04-24T05:27:54;97078.42;;;14.20;44.35
61898;BME280;47850;50.274;18.908;2023-04-24T05:30:22;97076.51;;;14.24;44.21
61898;BME280;47850;50.274;18.908;2023-04-24T05:32:50;97075.29;;;14.27;44.08
61898;BME280;47850;50.274;18.908;2023-04-24T05:35:17;97074.23;;;14.29;43.87
61898;BME280;47850;50.274;18.908;2023-04-24T05:37:46;97078.02;;;14.31;43.80
61898;BME280;47850;50.274;18.908;2023-04-24T05:40:13;97080.73;;;14.34;43.64
61898;BME280;47850;50.274;18.908;2023-04-24T05:42:41;97076.71;;;14.39;43.34
61898;BME280;47850;50.274;18.908;2023-04-24T05:45:09;97075.54;;;14.44;43.44
61898;BME280;47850;50.274;18.908;2023-04-24T05:47:42;97073.63;;;14.49;43.29
61898;BME280;47850;50.274;18.908;2023-04-24T05:50:11;97076.91;;;14.55;43.06
61898;BME280;47850;50.274;18.908;2023-04-24T05:52:39;97077.11;;;14.58;42.77
61898;BME280;47850;50.274;18.908;2023-04-24T05:55:07;97071.09;;;14.65;42.78
61898;BME280;47850;50.274;18.908;2023-04-24T05:57:35;97070.11;;;14.72;42.58
61898;BME280;47850;50.274;18.908;2023-04-24T06:00:03;97068.29;;;14.79;42.02
61898;BME280;47850;50.274;18.908;2023-04-24T06:02:31;97066.79;;;14.84;41.66
61898;BME280;47850;50.274;18.908;2023-04-24T06:05:00;97068.20;;;14.91;41.60
61898;BME280;47850;50.274;18.908;2023-04-24T06:07:27;97066.66;;;15.00;41.43
61898;BME280;47850;50.274;18.908;2023-04-24T06:09:55;97065.65;;;15.09;41.06
61898;BME280;47850;50.274;18.908;2023-04-24T06:12:24;97062.52;;;15.16;40.83
61898;BME280;47850;50.274;18.908;2023-04-24T06:14:51;97065.16;;;15.24;40.68
61898;BME280;47850;50.274;18.908;2023-04-24T06:17:19;97062.19;;;15.31;40.44
61898;BME280;47850;50.274;18.908;2023-04-24T06:19:47;97061.13;;;15.36;39.40
61898;BME280;47850;50.274;18.908;2023-04-24T06:22:14;97061.38;;;15.38;39.54
61898;BME280;47850;50.274;18.908;2023-04-24T06:24:43;97060.73;;;15.44;39.71
61898;BME280;47850;50.274;18.908;2023-04-24T06:27:10;97059.81;;;15.47;38.49
61898;BME280;47850;50.274;18.908;2023-04-24T06:29:38;97056.78;;;15.50;38.84
61898;BME280;47850;50.274;18.908;2023-04-24T06:32:06;97057.69;;;15.55;38.77
61898;BME280;47850;50.274;18.908;2023-04-24T06:34:34;97054.11;;;15.60;39.01
61898;BME280;47850;50.274;18.908;2023-04-24T06:37:02;97050.56;;;15.67;39.00
61898;BME280;47850;50.274;18.908;2023-04-24T06:39:30;97052.91;;;15.75;38.19
61898;BME280;47850;50.274;18.908;2023-04-24T06:41:58;97050.19;;;15.80;37.88
61898;BME280;47850;50.274;18.908;2023-04-24T06:44:26;97048.92;;;15.86;38.21
61898;BME280;47850;50.274;18.908;2023-04-24T06:46:53;97047.63;;;15.92;38.16
61898;BME280;47850;50.274;18.908;2023-04-24T06:49:21;97047.43;;;15.99;37.95
61898;BME280;47850;50.274;18.908;2023-04-24T06:51:49;97051.18;;;16.06;37.42
61898;BME280;47850;50.274;18.908;2023-04-24T06:54:16;97047.69;;;16.14;37.51
61898;BME280;47850;50.274;18.908;2023-04-24T06:56:44;97050.02;;;16.20;36.35
61898;BME280;47850;50.274;18.908;2023-04-24T06:59:14;97048.23;;;16.27;36.46
61898;BME280;47850;50.274;18.908;2023-04-24T07:01:42;97051.25;;;16.34;36.01
61898;BME280;47850;50.274;18.908;2023-04-24T07:04:10;97051.76;;;16.40;35.83
61898;BME280;47850;50.274;18.908;2023-04-24T07:06:39;97051.71;;;16.44;35.53
61898;BME280;47850;50.274;18.908;2023-04-24T07:09:07;97051.95;;;16.47;35.23
61898;BME280;47850;50.274;18.908;2023-04-24T07:11:37;97047.52;;;16.53;35.27
61898;BME280;47850;50.274;18.908;2023-04-24T07:14:06;97046.44;;;16.63;35.20
61898;BME280;47850;50.274;18.908;2023-04-24T07:16:34;97044.02;;;16.68;34.55
61898;BME280;47850;50.274;18.908;2023-04-24T07:19:02;97039.95;;;16.72;34.84
61898;BME280;47850;50.274;18.908;2023-04-24T07:21:29;97041.79;;;16.81;35.07
61898;BME280;47850;50.274;18.908;2023-04-24T07:23:58;97039.85;;;16.91;34.55
61898;BME280;47850;50.274;18.908;2023-04-24T07:26:27;97034.38;;;16.96;34.17
61898;BME280;47850;50.274;18.908;2023-04-24T07:28:55;97033.86;;;17.05;34.51
61898;BME280;47850;50.274;18.908;2023-04-24T07:31:23;97035.45;;;17.14;34.19
61898;BME280;47850;50.274;18.908;2023-04-24T07:33:51;97033.81;;;17.24;34.06
61898;BME280;47850;50.274;18.908;2023-04-24T07:36:18;97030.67;;;17.35;34.37
61898;BME280;47850;50.274;18.908;2023-04-24T07:38:46;97028.71;;;17.44;33.63
61898;BME280;47850;50.274;18.908;2023-04-24T07:41:14;97030.44;;;17.50;33.72
61898;BME280;47850;50.274;18.908;2023-04-24T07:43:44;97031.56;;;17.60;33.51
61898;BME280;47850;50.274;18.908;2023-04-24T07:46:12;97029.58;;;17.71;33.16
61898;BME280;47850;50.274;18.908;2023-04-24T07:48:39;97035.80;;;17.79;32.42
61898;BME280;47850;50.274;18.908;2023-04-24T07:51:07;97035.71;;;17.83;32.62
61898;BME280;47850;50.274;18.908;2023-04-24T07:53:37;97032.86;;;17.91;32.68
61898;BME280;47850;50.274;18.908;2023-04-24T07:56:05;97031.63;;;17.98;32.63
61898;BME280;47850;50.274;18.908;2023-04-24T07:58:33;97028.47;;;18.03;32.15
61898;BME280;47850;50.274;18.908;2023-04-24T08:01:00;97030.98;;;18.06;31.57
61898;BME280;47850;50.274;18.908;2023-04-24T08:03:28;97023.89;;;18.04;31.50
61898;BME280;47850;50.274;18.908;2023-04-24T08:05:56;97018.60;;;18.08;32.03
61898;BME280;47850;50.274;18.908;2023-04-24T08:08:24;97018.83;;;18.14;31.85
61898;BME280;47850;50.274;18.908;2023-04-24T08:10:52;97015.42;;;18.19;31.94
61898;BME280;47850;50.274;18.908;2023-04-24T08:13:19;97014.85;;;18.26;31.59
61898;BME280;47850;50.274;18.908;2023-04-24T08:15:47;97011.36;;;18.32;31.80
61898;BME280;47850;50.274;18.908;2023-04-24T08:18:15;97013.93;;;18.42;31.58
61898;BME280;47850;50.274;18.908;2023-04-24T08:20:43;97010.60;;;18.49;31.05
61898;BME280;47850;50.274;18.908;2023-04-24T08:23:11;97012.46;;;18.54;31.28
61898;BME280;47850;50.274;18.908;2023-04-24T08:25:39;97013.69;;;18.63;31.38
61898;BME280;47850;50.274;18.908;2023-04-24T08:28:08;97007.59;;;18.71;31.43
61898;BME280;47850;50.274;18.908;2023-04-24T08:30:36;97010.60;;;18.82;31.09
61898;BME280;47850;50.274;18.908;2023-04-24T08:33:04;97017.04;;;18.88;30.87
61898;BME280;47850;50.274;18.908;2023-04-24T08:35:32;97009.61;;;18.95;31.09
61898;BME280;47850;50.274;18.908;2023-04-24T08:37:59;97006.65;;;19.03;30.78
61898;BME280;47850;50.274;18.908;2023-04-24T08:40:28;97007.48;;;19.09;30.55
61898;BME280;47850;50.274;18.908;2023-04-24T08:42:59;97003.56;;;19.17;30.54
61898;BME280;47850;50.274;18.908;2023-04-24T08:45:26;96998.80;;;19.30;31.09
61898;BME280;47850;50.274;18.908;2023-04-24T08:47:54;96999.10;;;19.42;30.65
61898;BME280;47850;50.274;18.908;2023-04-24T08:50:22;96997.66;;;19.46;30.51
61898;BME280;47850;50.274;18.908;2023-04-24T08:52:50;96996.97;;;19.52;31.12
61898;BME280;47850;50.274;18.908;2023-04-24T08:55:20;96997.70;;;19.59;30.71
61898;BME280;47850;50.274;18.908;2023-04-24T08:57:50;96999.17;;;19.64;30.35
61898;BME280;47850;50.274;18.908;2023-04-24T09:00:19;96994.09;;;19.65;30.27
61898;BME280;47850;50.274;18.908;2023-04-24T09:02:48;96992.02;;;19.68;30.43
61898;BME280;47850;50.274;18.908;2023-04-24T09:05:17;96993.27;;;19.78;30.48
61898;BME280;47850;50.274;18.908;2023-04-24T09:07:48;96998.61;;;19.81;30.70
61898;BME280;47850;50.274;18.908;2023-04-24T09:10:17;96997.42;;;19.82;30.54
61898;BME280;47850;50.274;18.908;2023-04-24T09:12:45;96998.34;;;19.88;30.39
61898;BME280;47850;50.274;18.908;2023-04-24T09:15:13;96994.48;;;19.95;30.47
61898;BME280;47850;50.274;18.908;2023-04-24T09:17:41;96993.81;;;20.06;30.62
61898;BME280;47850;50.274;18.908;2023-04-24T09:20:09;96995.27;;;20.17;30.49
61898;BME280;47850;50.274;18.908;2023-04-24T09:22:37;96994.17;;;20.23;30.74
61898;BME280;47850;50.274;18.908;2023-04-24T09:25:05;96994.63;;;20.26;30.33
61898;BME280;47850;50.274;18.908;2023-04-24T09:27:34;96987.88;;;20.35;30.45
61898;BME280;47850;50.274;18.908;2023-04-24T09:30:02;96982.44;;;20.53;30.82
61898;BME280;47850;50.274;18.908;2023-04-24T09:32:30;96981.23;;;20.67;30.16
61898;BME280;47850;50.274;18.908;2023-04-24T09:37:40;96983.24;;;20.65;29.86
61898;BME280;47850;50.274;18.908;2023-04-24T09:40:13;96978.95;;;20.66;29.97
61898;BME280;47850;50.274;18.908;2023-04-24T09:42:51;96975.61;;;20.68;30.49
61898;BME280;47850;50.274;18.908;2023-04-24T09:45:20;96975.48;;;20.85;30.57
61898;BME280;47850;50.274;18.908;2023-04-24T09:47:51;96973.17;;;20.92;29.81
61898;BME280;47850;50.274;18.908;2023-04-24T09:50:21;96972.27;;;20.94;30.00
61898;BME280;47850;50.274;18.908;2023-04-24T09:52:56;96973.67;;;20.96;29.85
61898;BME280;47850;50.274;18.908;2023-04-24T09:55:24;96969.16;;;20.90;29.55
61898;BME280;47850;50.274;18.908;2023-04-24T10:00:24;96967.30;;;21.14;30.41
61898;BME280;47850;50.274;18.908;2023-04-24T10:02:59;96961.11;;;21.40;30.24
61898;BME280;47850;50.274;18.908;2023-04-24T10:05:36;96956.89;;;21.62;29.68
61898;BME280;47850;50.274;18.908;2023-04-24T10:08:05;96954.50;;;21.84;29.63
61898;BME280;47850;50.274;18.908;2023-04-24T10:10:34;96959.10;;;21.98;29.24
61898;BME280;47850;50.274;18.908;2023-04-24T10:13:04;96957.70;;;21.84;29.02
61898;BME280;47850;50.274;18.908;2023-04-24T10:15:32;96958.83;;;21.69;29.08
61898;BME280;47850;50.274;18.908;2023-04-24T10:18:00;96960.22;;;21.56;29.28
61898;BME280;47850;50.274;18.908;2023-04-24T10:20:28;96957.31;;;21.44;29.29
61898;BME280;47850;50.274;18.908;2023-04-24T10:22:59;96960.09;;;21.39;29.23
61898;BME280;47850;50.274;18.908;2023-04-24T10:25:31;96956.47;;;21.39;29.06
61898;BME280;47850;50.274;18.908;2023-04-24T10:27:59;96956.04;;;21.44;29.03
61898;BME280;47850;50.274;18.908;2023-04-24T10:30:29;96949.73;;;21.63;29.23
61898;BME280;47850;50.274;18.908;2023-04-24T10:32:57;96954.29;;;21.79;28.99
61898;BME280;47850;50.274;18.908;2023-04-24T10:35:24;96957.30;;;21.83;28.55
61898;BME280;47850;50.274;18.908;2023-04-24T10:37:54;96957.98;;;21.84;28.42
61898;BME280;47850;50.274;18.908;2023-04-24T10:40:27;96956.48;;;21.80;29.02
61898;BME280;47850;50.274;18.908;2023-04-24T10:42:57;96952.91;;;21.71;29.20
61898;BME280;47850;50.274;18.908;2023-04-24T10:45:25;96953.86;;;21.47;29.01
61898;BME280;47850;50.274;18.908;2023-04-24T10:50:20;96943.80;;;21.02;30.23
61898;BME280;47850;50.274;18.908;2023-04-24T10:52:49;96949.73;;;20.87;30.50
61898;BME280;47850;50.274;18.908;2023-04-24T10:58:35;96943.45;;;20.59;31.06
61898;BME280;47850;50.274;18.908;2023-04-24T11:01:04;96946.17;;;20.55;31.30
61898;BME280;47850;50.274;18.908;2023-04-24T11:03:33;96943.90;;;20.41;31.46
61898;BME280;47850;50.274;18.908;2023-04-24T11:06:08;96945.66;;;20.20;31.87
61898;BME280;47850;50.274;18.908;2023-04-24T11:08:41;96949.57;;;20.04;32.23
61898;BME280;47850;50.274;18.908;2023-04-24T11:16:30;96965.56;;;19.20;33.63
61898;BME280;47850;50.274;18.908;2023-04-24T11:21:43;96978.91;;;18.76;34.66
61898;BME280;47850;50.274;18.908;2023-04-24T11:27:14;96980.41;;;18.46;35.51
61898;BME280;47850;50.274;18.908;2023-04-24T11:32:28;96978.70;;;18.38;35.98
61898;BME280;47850;50.274;18.908;2023-04-24T11:37:26;96981.02;;;18.32;36.02
61898;BME280;47850;50.274;18.908;2023-04-24T11:39:54;96977.88;;;18.27;36.07
61898;BME280;47850;50.274;18.908;2023-04-24T11:42:22;96976.30;;;18.26;36.35
61898;BME280;47850;50.274;18.908;2023-04-24T11:44:53;96981.89;;;18.28;36.54
61898;BME280;47850;50.274;18.908;2023-04-24T11:47:29;96980.50;;;18.21;36.50
61898;BME280;47850;50.274;18.908;2023-04-24T11:49:57;96970.29;;;18.11;36.69
61898;BME280;47850;50.274;18.908;2023-04-24T11:52:26;96973.84;;;18.04;36.69
61898;BME280;47850;50.274;18.908;2023-04-24T11:54:54;96970.55;;;18.00;37.03
61898;BME280;47850;50.274;18.908;2023-04-24T11:57:22;96972.14;;;18.00;37.32
61898;BME280;47850;50.274;18.908;2023-04-24T11:59:51;96968.96;;;18.01;37.42
61898;BME280;47850;50.274;18.908;2023-04-24T12:02:26;96968.33;;;18.06;37.45
61898;BME280;47850;50.274;18.908;2023-04-24T12:04:54;96966.17;;;18.11;37.44
61898;BME280;47850;50.274;18.908;2023-04-24T12:07:23;96963.17;;;18.17;37.59
61898;BME280;47850;50.274;18.908;2023-04-24T12:09:56;96963.71;;;18.22;37.77
61898;BME280;47850;50.274;18.908;2023-04-24T12:12:24;96959.66;;;18.27;37.65
61898;BME280;47850;50.274;18.908;2023-04-24T12:14:53;96960.59;;;18.31;37.84
61898;BME280;47850;50.274;18.908;2023-04-24T12:17:26;96965.41;;;18.28;38.19
61898;BME280;47850;50.274;18.908;2023-04-24T12:19:57;96966.57;;;18.14;39.05
61898;BME280;47850;50.274;18.908;2023-04-24T12:22:25;96968.48;;;18.02;39.33
61898;BME280;47850;50.274;18.908;2023-04-24T12:24:59;96969.21;;;17.89;39.77
61898;BME280;47850;50.274;18.908;2023-04-24T12:27:29;96962.05;;;17.82;40.26
61898;BME280;47850;50.274;18.908;2023-04-24T12:29:58;96964.11;;;17.80;40.48
61898;BME280;47850;50.274;18.908;2023-04-24T12:32:26;96964.59;;;17.80;40.74
61898;BME280;47850;50.274;18.908;2023-04-24T12:34:54;96965.52;;;17.79;41.00
61898;BME280;47850;50.274;18.908;2023-04-24T12:37:23;96966.64;;;17.72;41.19
61898;BME280;47850;50.274;18.908;2023-04-24T12:42:28;96963.65;;;17.68;41.78
61898;BME280;47850;50.274;18.908;2023-04-24T12:45:01;96963.80;;;17.76;41.68
61898;BME280;47850;50.274;18.908;2023-04-24T12:47:29;96961.81;;;17.91;41.73
61898;BME280;47850;50.274;18.908;2023-04-24T12:49:57;96959.80;;;18.12;41.55
61898;BME280;47850;50.274;18.908;2023-04-24T12:52:25;96959.97;;;18.29;41.13
61898;BME280;47850;50.274;18.908;2023-04-24T12:54:54;96959.36;;;18.43;41.02
61898;BME280;47850;50.274;18.908;2023-04-24T12:57:23;96958.02;;;18.58;40.83
61898;BME280;47850;50.274;18.908;2023-04-24T12:59:53;96960.66;;;18.66;39.93
61898;BME280;47850;50.274;18.908;2023-04-24T13:02:21;96961.95;;;18.63;39.82
61898;BME280;47850;50.274;18.908;2023-04-24T13:04:50;96956.91;;;18.62;39.84
61898;BME280;47850;50.274;18.908;2023-04-24T13:07:17;96955.23;;;18.65;40.41
61898;BME280;47850;50.274;18.908;2023-04-24T13:09:45;96944.00;;;18.70;40.60
61898;BME280;47850;50.274;18.908;2023-04-24T13:12:13;96942.05;;;18.69;40.62
61898;BME280;47850;50.274;18.908;2023-04-24T13:14:41;96937.04;;;18.60;40.00
61898;BME280;47850;50.274;18.908;2023-04-24T13:17:09;96940.52;;;18.59;40.74
61898;BME280;47850;50.274;18.908;2023-04-24T13:19:40;96937.20;;;18.57;40.81
61898;BME280;47850;50.274;18.908;2023-04-24T13:22:11;96940.53;;;18.39;40.76
61898;BME280;47850;50.274;18.908;2023-04-24T13:24:40;96936.88;;;18.23;41.23
61898;BME280;47850;50.274;18.908;2023-04-24T13:27:08;96939.71;;;18.05;41.82